createdAt,value
2018-09-17T00:01:11.465Z,12.70
2018-09-17T00:03:40.001Z,12.60
2018-09-17T00:06:08.514Z,12.70
2018-09-17T00:08:37.046Z,12.70
2018-09-17T00:11:05.581Z,12.70
2018-09-17T00:13:34.145Z,12.60
2018-09-17T00:16:02.668Z,12.60
2018-09-17T00:18:31.226Z,12.50
2018-09-17T00:20:59.747Z,12.50
2018-09-17T00:23:28.285Z,12.60
2018-09-17T00:25:56.893Z,12.50
2018-09-17T00:28:25.433Z,12.50
2018-09-17T00:30:53.953Z,12.50
2018-09-17T00:33:22.497Z,12.30
2018-09-17T00:35:51.034Z,12.40
2018-09-17T00:38:19.582Z,12.40
2018-09-17T00:40:48.111Z,12.30
2018-09-17T00:43:16.660Z,12.30
2018-09-17T00:45:45.192Z,12.20
2018-09-17T00:48:13.740Z,12.20
2018-09-17T00:50:42.283Z,12.20
2018-09-17T00:53:10.854Z,12.20
2018-09-17T00:55:39.372Z,12.20
2018-09-17T00:58:08.015Z,12.20
2018-09-17T01:00:36.562Z,12.20
2018-09-17T01:03:05.135Z,12.20
2018-09-17T01:05:33.683Z,12.10
2018-09-17T01:08:02.240Z,12.10
2018-09-17T01:10:30.868Z,12.10
2018-09-17T01:12:59.421Z,12.10
2018-09-17T01:15:27.930Z,12.00
2018-09-17T01:17:56.464Z,12.00
2018-09-17T01:20:25.031Z,12.10
2018-09-17T01:22:53.723Z,12.00
2018-09-17T01:25:22.221Z,11.90
2018-09-17T01:27:50.832Z,11.90
2018-09-17T01:30:19.357Z,12.00
2018-09-17T01:32:47.888Z,11.90
2018-09-17T01:35:16.396Z,11.80
2018-09-17T01:37:44.921Z,11.80
2018-09-17T01:40:13.417Z,11.80
2018-09-17T01:42:41.960Z,11.80
2018-09-17T01:45:10.478Z,11.80
2018-09-17T01:47:38.981Z,11.70
2018-09-17T01:50:07.606Z,11.50
2018-09-17T01:52:36.138Z,11.60
2018-09-17T01:55:04.962Z,11.70
2018-09-17T01:57:33.479Z,11.70
2018-09-17T02:00:02.033Z,11.70
2018-09-17T02:02:30.569Z,11.70
2018-09-17T02:04:59.129Z,11.70
2018-09-17T02:07:27.636Z,11.60
2018-09-17T02:09:56.235Z,11.60
2018-09-17T02:12:24.751Z,11.60
2018-09-17T02:14:53.297Z,11.60
2018-09-17T02:17:21.825Z,11.60
2018-09-17T02:19:50.372Z,11.60
2018-09-17T02:22:18.915Z,11.60
2018-09-17T02:24:47.466Z,11.50
2018-09-17T02:27:16.025Z,11.60
2018-09-17T02:29:44.821Z,11.50
2018-09-17T02:32:13.327Z,11.50
2018-09-17T02:34:41.860Z,11.50
2018-09-17T02:37:10.398Z,11.50
2018-09-17T02:39:38.971Z,11.50
2018-09-17T02:42:07.942Z,11.40
2018-09-17T02:44:36.857Z,11.40
2018-09-17T02:47:05.747Z,11.30
2018-09-17T02:49:34.288Z,11.40
2018-09-17T02:52:02.894Z,11.30
2018-09-17T02:54:31.465Z,11.30
2018-09-17T02:56:59.993Z,11.30
2018-09-17T02:59:28.585Z,11.30
2018-09-17T03:01:57.132Z,11.30
2018-09-17T03:04:25.676Z,11.30
2018-09-17T03:06:54.221Z,11.30
2018-09-17T03:09:22.765Z,11.30
2018-09-17T03:11:51.269Z,11.30
2018-09-17T03:14:27.254Z,11.30
2018-09-17T03:17:08.306Z,11.20
2018-09-17T03:19:36.925Z,11.20
2018-09-17T03:22:05.482Z,11.10
2018-09-17T03:24:34.028Z,11.00
2018-09-17T03:27:02.565Z,11.00
2018-09-17T03:29:31.130Z,11.00
2018-09-17T03:31:59.662Z,11.00
2018-09-17T03:34:28.505Z,11.10
2018-09-17T03:36:57.038Z,11.10
2018-09-17T03:39:25.617Z,11.10
2018-09-17T03:41:54.130Z,11.10
2018-09-17T03:44:22.674Z,11.00
2018-09-17T03:46:51.226Z,11.00
2018-09-17T03:49:19.767Z,11.00
2018-09-17T03:51:48.329Z,11.00
2018-09-17T03:54:17.666Z,11.00
2018-09-17T03:56:47.064Z,11.10
2018-09-17T03:59:15.606Z,11.00
2018-09-17T04:01:44.154Z,11.00
2018-09-17T04:04:12.706Z,11.00
2018-09-17T04:06:41.311Z,10.90
2018-09-17T04:09:09.850Z,10.90
2018-09-17T04:11:38.381Z,10.90
2018-09-17T04:14:08.523Z,10.90
2018-09-17T04:16:37.504Z,10.90
2018-09-17T04:19:06.726Z,10.90
2018-09-17T04:21:35.307Z,10.80
2018-09-17T04:24:03.850Z,10.70
2018-09-17T04:26:32.419Z,10.70
2018-09-17T04:29:00.930Z,10.60
2018-09-17T04:31:29.526Z,10.60
2018-09-17T04:33:58.029Z,10.60
2018-09-17T04:36:26.584Z,10.70
2018-09-17T04:38:55.152Z,10.70
2018-09-17T04:41:23.745Z,10.70
2018-09-17T04:43:52.321Z,10.70
2018-09-17T04:46:20.877Z,10.70
2018-09-17T04:48:49.402Z,10.60
2018-09-17T04:51:17.946Z,10.60
2018-09-17T04:53:46.483Z,10.60
2018-09-17T04:56:15.023Z,10.70
2018-09-17T04:58:43.542Z,10.70
2018-09-17T05:01:12.102Z,10.60
2018-09-17T05:03:40.698Z,10.60
2018-09-17T05:06:09.252Z,10.60
2018-09-17T05:08:37.797Z,10.50
2018-09-17T05:11:06.515Z,10.60
2018-09-17T05:13:35.337Z,10.50
2018-09-17T05:16:03.936Z,10.60
2018-09-17T05:18:32.726Z,10.60
2018-09-17T05:21:01.277Z,10.60
2018-09-17T05:23:29.853Z,10.60
2018-09-17T05:25:58.425Z,10.60
2018-09-17T05:28:26.962Z,10.60
2018-09-17T05:30:55.594Z,10.60
2018-09-17T05:33:25.541Z,10.60
2018-09-17T05:35:54.186Z,10.60
2018-09-17T05:38:22.745Z,10.60
2018-09-17T05:40:51.378Z,10.60
2018-09-17T05:43:20.023Z,10.60
2018-09-17T05:45:50.407Z,10.70
2018-09-17T05:48:21.837Z,10.60
2018-09-17T05:50:50.500Z,10.60
2018-09-17T05:53:19.050Z,10.70
2018-09-17T05:55:47.616Z,10.70
2018-09-17T05:58:16.146Z,10.60
2018-09-17T06:00:44.817Z,10.70
2018-09-17T06:03:13.399Z,10.70
2018-09-17T06:05:42.117Z,10.80
2018-09-17T06:08:13.129Z,10.80
2018-09-17T06:10:41.868Z,10.80
2018-09-17T06:13:10.430Z,10.80
2018-09-17T06:15:41.342Z,10.80
2018-09-17T06:18:09.937Z,10.80
2018-09-17T06:20:38.861Z,10.90
2018-09-17T06:23:07.679Z,10.80
2018-09-17T06:25:36.335Z,10.80
2018-09-17T06:28:05.357Z,11.00
2018-09-17T06:30:34.678Z,11.00
2018-09-17T06:33:03.241Z,11.20
2018-09-17T06:35:35.320Z,11.30
2018-09-17T06:38:06.470Z,11.40
2018-09-17T06:40:35.166Z,11.50
2018-09-17T06:43:03.747Z,11.60
2018-09-17T06:45:32.298Z,11.60
2018-09-17T06:48:00.915Z,11.70
2018-09-17T06:50:29.442Z,12.00
2018-09-17T06:52:58.001Z,12.10
2018-09-17T06:55:26.523Z,12.20
2018-09-17T06:57:55.113Z,12.30
2018-09-17T07:00:23.622Z,12.40
2018-09-17T07:02:52.180Z,12.50
2018-09-17T07:05:20.730Z,12.70
2018-09-17T07:07:49.286Z,12.80
2018-09-17T07:10:17.810Z,12.90
2018-09-17T07:12:46.400Z,13.10
2018-09-17T07:15:14.945Z,13.30
2018-09-17T07:17:43.524Z,13.50
2018-09-17T07:20:12.745Z,13.50
2018-09-17T07:22:41.293Z,13.70
2018-09-17T07:25:10.513Z,13.90
2018-09-17T07:27:39.067Z,14.10
2018-09-17T07:30:07.701Z,14.10
2018-09-17T07:32:36.282Z,14.30
2018-09-17T07:35:04.837Z,14.40
2018-09-17T07:37:33.396Z,14.60
2018-09-17T07:40:01.918Z,14.70
2018-09-17T07:42:30.483Z,14.80
2018-09-17T07:44:59.362Z,15.00
2018-09-17T07:47:27.897Z,15.10
2018-09-17T07:49:56.443Z,15.20
2018-09-17T07:52:25.023Z,15.30
2018-09-17T07:54:53.541Z,15.40
2018-09-17T07:57:22.200Z,15.60
2018-09-17T07:59:50.787Z,15.80
2018-09-17T08:02:19.342Z,16.00
2018-09-17T08:04:47.882Z,16.10
2018-09-17T08:07:16.464Z,16.30
2018-09-17T08:09:44.990Z,16.40
2018-09-17T08:12:13.656Z,16.50
2018-09-17T08:14:42.237Z,16.70
2018-09-17T08:17:10.819Z,16.80
2018-09-17T08:19:39.567Z,17.10
2018-09-17T08:22:08.117Z,17.20
2018-09-17T08:24:36.851Z,17.40
2018-09-17T08:27:05.686Z,17.50
2018-09-17T08:29:34.319Z,17.50
2018-09-17T08:32:02.950Z,17.90
2018-09-17T08:34:31.476Z,18.10
2018-09-17T08:37:00.037Z,18.30
2018-09-17T08:39:29.357Z,18.30
2018-09-17T08:42:01.251Z,18.30
2018-09-17T08:44:29.832Z,18.40
2018-09-17T08:46:58.417Z,18.60
2018-09-17T08:49:27.097Z,18.70
2018-09-17T08:51:58.965Z,18.90
2018-09-17T08:54:28.600Z,19.10
2018-09-17T08:56:59.893Z,19.10
2018-09-17T08:59:33.639Z,19.30
2018-09-17T09:02:07.662Z,19.60
2018-09-17T09:05:40.196Z,19.60
2018-09-17T09:08:09.251Z,19.50
2018-09-17T09:10:43.159Z,19.80
2018-09-17T09:13:15.982Z,20.00
2018-09-17T09:15:44.889Z,19.90
2018-09-17T09:18:13.480Z,19.90
2018-09-17T09:20:42.132Z,20.10
2018-09-17T09:23:10.702Z,20.20
2018-09-17T09:25:39.302Z,20.30
2018-09-17T09:28:07.938Z,20.60
2018-09-17T09:30:36.610Z,20.60
2018-09-17T09:33:07.461Z,20.60
2018-09-17T09:35:36.846Z,20.70
2018-09-17T09:38:09.256Z,20.70
2018-09-17T09:40:42.178Z,20.90
2018-09-17T09:43:10.853Z,21.00
2018-09-17T09:45:39.413Z,21.00
2018-09-17T09:48:07.962Z,21.20
2018-09-17T09:50:37.345Z,21.20
2018-09-17T09:53:05.996Z,21.20
2018-09-17T09:55:34.617Z,21.30
2018-09-17T09:58:03.166Z,21.40
2018-09-17T10:00:37.027Z,21.60
2018-09-17T10:03:10.952Z,21.60
2018-09-17T10:05:39.481Z,21.70
2018-09-17T10:08:08.029Z,21.70
2018-09-17T10:10:41.909Z,21.90
2018-09-17T10:13:15.765Z,22.00
2018-09-17T10:15:50.357Z,22.10
2018-09-17T10:18:24.453Z,22.10
2018-09-17T10:20:52.974Z,22.20
2018-09-17T10:23:21.526Z,22.20
2018-09-17T10:25:50.697Z,22.30
2018-09-17T10:28:19.419Z,22.50
2018-09-17T10:30:48.095Z,22.50
2018-09-17T10:33:16.672Z,22.50
2018-09-17T10:35:45.240Z,22.60
2018-09-17T10:38:13.936Z,22.80
2018-09-17T10:40:42.495Z,22.80
2018-09-17T10:43:11.051Z,23.10
2018-09-17T10:45:40.473Z,23.20
2018-09-17T10:48:09.253Z,23.20
2018-09-17T10:50:37.937Z,23.30
2018-09-17T10:53:06.522Z,23.50
2018-09-17T10:55:35.994Z,23.40
2018-09-17T10:58:04.741Z,23.40
2018-09-17T11:00:33.357Z,23.40
2018-09-17T11:03:01.929Z,23.50
2018-09-17T11:05:30.549Z,23.60
2018-09-17T11:07:59.129Z,23.70
2018-09-17T11:10:27.697Z,23.90
2018-09-17T11:12:56.328Z,24.00
2018-09-17T11:15:55.942Z,24.00
2018-09-17T11:18:24.481Z,24.10
2018-09-17T11:20:53.059Z,24.40
2018-09-17T11:23:21.620Z,24.40
2018-09-17T11:25:50.172Z,24.40
2018-09-17T11:28:18.822Z,24.40
2018-09-17T11:30:47.414Z,24.40
2018-09-17T11:33:15.981Z,24.60
2018-09-17T11:35:44.552Z,24.70
2018-09-17T11:38:13.099Z,24.60
2018-09-17T11:40:41.660Z,24.70
2018-09-17T11:43:10.185Z,24.80
2018-09-17T11:45:38.739Z,24.80
2018-09-17T11:48:07.425Z,24.80
2018-09-17T11:50:36.036Z,24.80
2018-09-17T11:53:04.604Z,24.90
2018-09-17T11:55:33.391Z,24.90
2018-09-17T11:58:01.953Z,25.00
2018-09-17T12:00:35.883Z,24.90
2018-09-17T12:03:10.069Z,25.00
2018-09-17T12:05:44.290Z,25.00
2018-09-17T12:08:15.385Z,25.00
2018-09-17T12:10:45.163Z,25.10
2018-09-17T12:13:14.238Z,25.10
2018-09-17T12:15:44.046Z,25.10
2018-09-17T12:18:14.380Z,25.20
2018-09-17T12:20:45.446Z,25.20
2018-09-17T12:23:15.070Z,25.10
2018-09-17T12:25:45.059Z,25.10
2018-09-17T12:28:14.533Z,25.00
2018-09-17T12:30:43.284Z,25.00
2018-09-17T12:33:11.928Z,25.20
2018-09-17T12:35:40.565Z,25.30
2018-09-17T12:38:09.384Z,25.30
2018-09-17T12:40:38.209Z,25.40
2018-09-17T12:43:06.886Z,25.40
2018-09-17T12:45:36.515Z,25.40
2018-09-17T12:48:05.497Z,25.50
2018-09-17T12:50:34.265Z,25.40
2018-09-17T12:53:03.167Z,25.40
2018-09-17T12:55:35.904Z,25.40
2018-09-17T12:58:06.615Z,25.50
2018-09-17T13:00:36.807Z,25.70
2018-09-17T13:03:10.428Z,25.60
2018-09-17T13:05:41.203Z,25.40
2018-09-17T13:08:11.809Z,25.40
2018-09-17T13:10:43.277Z,25.40
2018-09-17T13:13:11.974Z,25.50
2018-09-17T13:15:47.328Z,25.70
2018-09-17T13:18:17.563Z,25.60
2018-09-17T13:20:46.699Z,25.60
2018-09-17T13:23:15.580Z,25.50
2018-09-17T13:25:44.348Z,25.50
2018-09-17T13:28:13.347Z,25.60
2018-09-17T13:30:42.609Z,25.70
2018-09-17T13:33:11.385Z,25.60
2018-09-17T13:35:40.025Z,25.70
2018-09-17T13:38:09.063Z,25.80
2018-09-17T13:40:37.655Z,25.70
2018-09-17T13:43:06.664Z,25.70
2018-09-17T13:45:35.228Z,25.80
2018-09-17T13:48:03.990Z,25.80
2018-09-17T13:50:33.264Z,25.80
2018-09-17T13:53:01.899Z,26.00
2018-09-17T13:55:30.436Z,26.00
2018-09-17T13:57:58.977Z,26.00
2018-09-17T14:00:27.535Z,26.00
2018-09-17T14:02:56.728Z,25.90
2018-09-17T14:05:25.338Z,25.80
2018-09-17T14:07:54.180Z,25.70
2018-09-17T14:10:24.450Z,25.70
2018-09-17T14:12:52.937Z,25.70
2018-09-17T14:15:21.481Z,25.80
2018-09-17T14:17:50.062Z,26.00
2018-09-17T14:20:18.627Z,26.10
2018-09-17T14:22:47.193Z,25.90
2018-09-17T14:25:15.783Z,25.80
2018-09-17T14:27:44.397Z,25.90
2018-09-17T14:30:12.956Z,25.90
2018-09-17T14:32:46.948Z,25.90
2018-09-17T14:35:15.540Z,25.70
2018-09-17T14:37:44.060Z,25.90
2018-09-17T14:40:12.645Z,25.90
2018-09-17T14:42:41.224Z,25.90
2018-09-17T14:45:09.761Z,26.00
2018-09-17T14:47:38.368Z,26.00
2018-09-17T14:50:06.947Z,25.90
2018-09-17T14:52:35.520Z,25.90
2018-09-17T14:55:04.150Z,25.90
2018-09-17T14:57:32.728Z,25.70
2018-09-17T15:00:01.381Z,25.70
2018-09-17T15:02:30.021Z,25.70
2018-09-17T15:04:58.549Z,25.70
2018-09-17T15:07:27.411Z,25.80
2018-09-17T15:09:55.966Z,25.80
2018-09-17T15:12:24.488Z,25.80
2018-09-17T15:14:53.044Z,25.80
2018-09-17T15:17:21.581Z,25.60
2018-09-17T15:19:50.113Z,25.50
2018-09-17T15:22:18.769Z,25.50
2018-09-17T15:24:47.277Z,25.40
2018-09-17T15:27:15.834Z,25.30
2018-09-17T15:29:44.402Z,25.50
2018-09-17T15:32:13.072Z,25.40
2018-09-17T15:34:41.493Z,25.40
2018-09-17T15:37:10.053Z,25.40
2018-09-17T15:39:38.589Z,25.40
2018-09-17T15:42:07.149Z,25.50
2018-09-17T15:44:35.702Z,25.50
2018-09-17T15:47:04.234Z,25.30
2018-09-17T15:49:32.785Z,25.30
2018-09-17T15:52:01.306Z,25.10
2018-09-17T15:54:30.378Z,25.10
2018-09-17T15:56:59.064Z,25.10
2018-09-17T15:59:27.625Z,24.90
2018-09-17T16:01:56.178Z,24.70
2018-09-17T16:04:24.721Z,24.80
2018-09-17T16:06:53.714Z,24.70
2018-09-17T16:09:22.630Z,24.70
2018-09-17T16:11:51.389Z,24.50
2018-09-17T16:14:19.996Z,24.40
2018-09-17T16:16:48.520Z,24.20
2018-09-17T16:19:17.086Z,24.20
2018-09-17T16:21:45.624Z,24.10
2018-09-17T16:24:14.178Z,23.90
2018-09-17T16:26:42.720Z,23.80
2018-09-17T16:29:11.272Z,23.70
2018-09-17T16:31:39.788Z,23.60
2018-09-17T16:34:08.358Z,23.70
2018-09-17T16:36:36.869Z,23.70
2018-09-17T16:39:07.787Z,23.60
2018-09-17T16:41:36.346Z,23.50
2018-09-17T16:44:04.898Z,23.40
2018-09-17T16:46:33.669Z,23.30
2018-09-17T16:49:02.221Z,23.10
2018-09-17T16:51:31.200Z,23.00
2018-09-17T16:54:00.105Z,22.70
2018-09-17T16:56:28.870Z,22.80
2018-09-17T16:58:57.499Z,22.70
2018-09-17T17:01:25.989Z,22.70
2018-09-17T17:03:54.539Z,22.60
2018-09-17T17:06:23.218Z,22.50
2018-09-17T17:08:51.768Z,22.40
2018-09-17T17:11:20.333Z,22.20
2018-09-17T17:13:48.982Z,22.00
2018-09-17T17:16:17.590Z,21.80
2018-09-17T17:18:46.252Z,21.80
2018-09-17T17:21:14.718Z,21.60
2018-09-17T17:23:43.273Z,21.50
2018-09-17T17:26:11.794Z,21.30
2018-09-17T17:28:41.064Z,21.20
2018-09-17T17:31:09.613Z,21.10
2018-09-17T17:33:38.165Z,21.10
2018-09-17T17:36:06.758Z,20.90
2018-09-17T17:38:35.382Z,20.70
2018-09-17T17:41:04.609Z,20.60
2018-09-17T17:43:33.194Z,20.40
2018-09-17T17:46:02.035Z,20.20
2018-09-17T17:48:30.559Z,20.10
2018-09-17T17:50:59.069Z,20.10
2018-09-17T17:53:27.618Z,20.00
2018-09-17T17:55:56.120Z,19.70
2018-09-17T17:58:25.240Z,19.60
2018-09-17T18:00:53.811Z,19.50
2018-09-17T18:03:22.325Z,19.40
2018-09-17T18:05:50.836Z,19.30
2018-09-17T18:08:19.468Z,19.40
2018-09-17T18:10:48.000Z,19.30
2018-09-17T18:13:16.654Z,19.20
2018-09-17T18:15:45.309Z,19.00
2018-09-17T18:18:15.347Z,18.90
2018-09-17T18:20:43.919Z,18.80
2018-09-17T18:23:12.437Z,18.70
2018-09-17T18:25:42.417Z,18.70
2018-09-17T18:28:10.947Z,18.60
2018-09-17T18:30:39.703Z,18.50
2018-09-17T18:33:08.436Z,18.50
2018-09-17T18:35:37.009Z,18.40
2018-09-17T18:38:05.898Z,18.40
2018-09-17T18:40:34.469Z,18.30
2018-09-17T18:43:03.696Z,18.20
2018-09-17T18:45:33.457Z,18.10
2018-09-17T18:48:02.025Z,17.90
2018-09-17T18:50:30.569Z,17.90
2018-09-17T18:52:59.094Z,17.80
2018-09-17T18:55:29.063Z,17.70
2018-09-17T18:57:57.592Z,17.70
2018-09-17T19:00:26.165Z,17.80
2018-09-17T19:02:54.802Z,17.70
2018-09-17T19:05:23.480Z,17.60
2018-09-17T19:07:52.001Z,17.50
2018-09-17T19:10:20.540Z,17.40
2018-09-17T19:12:49.148Z,17.50
2018-09-17T19:15:22.818Z,17.40
2018-09-17T19:17:51.410Z,17.30
2018-09-17T19:20:20.105Z,17.30
2018-09-17T19:22:54.898Z,17.20
2018-09-17T19:25:23.446Z,17.20
2018-09-17T19:27:57.525Z,17.10
2018-09-17T19:30:26.057Z,17.10
2018-09-17T19:32:54.587Z,17.00
2018-09-17T19:35:23.137Z,17.00
2018-09-17T19:37:57.928Z,17.00
2018-09-17T19:40:26.468Z,16.80
2018-09-17T19:42:54.984Z,16.80
2018-09-17T19:45:29.008Z,16.70
2018-09-17T19:47:57.615Z,16.80
2018-09-17T19:50:31.631Z,16.70
2018-09-17T19:53:00.205Z,16.70
2018-09-17T19:55:28.757Z,16.60
2018-09-17T19:58:02.640Z,16.60
2018-09-17T20:00:31.305Z,16.50
2018-09-17T20:02:59.796Z,16.50
2018-09-17T20:05:33.476Z,16.50
2018-09-17T20:08:01.984Z,16.50
2018-09-17T20:10:30.538Z,16.50
2018-09-17T20:12:59.141Z,16.40
2018-09-17T20:15:27.696Z,16.30
2018-09-17T20:17:56.253Z,16.40
2018-09-17T20:20:24.865Z,16.30
2018-09-17T20:22:53.430Z,16.30
2018-09-17T20:25:21.997Z,16.20
2018-09-17T20:27:50.536Z,16.30
2018-09-17T20:30:19.111Z,16.20
2018-09-17T20:32:47.738Z,16.30
2018-09-17T20:35:16.311Z,16.20
2018-09-17T20:37:44.885Z,16.10
2018-09-17T20:40:13.413Z,16.00
2018-09-17T20:42:41.968Z,16.00
2018-09-17T20:45:10.537Z,16.00
2018-09-17T20:47:39.137Z,16.00
2018-09-17T20:50:07.725Z,16.00
2018-09-17T20:52:36.299Z,15.90
2018-09-17T20:55:05.158Z,15.90
2018-09-17T20:57:33.697Z,15.90
2018-09-17T21:00:02.254Z,15.80
2018-09-17T21:02:30.841Z,15.80
2018-09-17T21:04:59.342Z,15.80
2018-09-17T21:07:28.617Z,15.70
2018-09-17T21:09:57.135Z,15.70
2018-09-17T21:12:25.761Z,15.70
2018-09-17T21:14:54.297Z,15.70
2018-09-17T21:17:22.870Z,15.70
2018-09-17T21:19:51.453Z,15.70
2018-09-17T21:22:19.994Z,15.70
2018-09-17T21:24:48.645Z,15.60
2018-09-17T21:27:17.206Z,15.60
2018-09-17T21:29:46.237Z,15.60
2018-09-17T21:32:14.810Z,15.60
2018-09-17T21:34:43.364Z,15.60
2018-09-17T21:37:11.990Z,15.60
2018-09-17T21:39:40.488Z,15.60
2018-09-17T21:42:09.053Z,15.50
2018-09-17T21:44:37.580Z,15.50
2018-09-17T21:47:06.212Z,15.40
2018-09-17T21:49:34.745Z,15.40
2018-09-17T21:52:03.344Z,15.30
2018-09-17T21:54:31.938Z,15.30
2018-09-17T21:57:00.527Z,15.20
2018-09-17T21:59:29.093Z,15.20
2018-09-17T22:01:57.681Z,15.20
2018-09-17T22:04:26.287Z,15.10
2018-09-17T22:06:54.882Z,15.10
2018-09-17T22:09:23.420Z,15.10
2018-09-17T22:11:58.662Z,15.00
2018-09-17T22:14:27.242Z,15.10
2018-09-17T22:16:55.812Z,15.10
2018-09-17T22:19:24.369Z,15.10
2018-09-17T22:21:52.962Z,15.10
2018-09-17T22:24:21.510Z,15.10
2018-09-17T22:26:50.120Z,15.00
2018-09-17T22:29:18.665Z,15.10
2018-09-17T22:31:47.281Z,15.00
2018-09-17T22:34:15.941Z,14.90
2018-09-17T22:36:44.479Z,14.90
2018-09-17T22:39:13.120Z,14.80
2018-09-17T22:41:41.683Z,14.80
2018-09-17T22:44:10.229Z,14.80
2018-09-17T22:46:38.783Z,14.80
2018-09-17T22:49:07.919Z,14.80
2018-09-17T22:51:36.991Z,14.70
2018-09-17T22:54:05.624Z,14.70
2018-09-17T22:56:34.257Z,14.60
2018-09-17T22:59:03.081Z,14.70
2018-09-17T23:01:31.625Z,14.60
2018-09-17T23:04:00.179Z,14.60
2018-09-17T23:06:28.696Z,14.60
2018-09-17T23:08:57.262Z,14.60
2018-09-17T23:11:25.837Z,14.50
2018-09-17T23:13:54.423Z,14.50
2018-09-17T23:16:22.952Z,14.50
2018-09-17T23:18:51.512Z,14.50
2018-09-17T23:21:20.044Z,14.50
2018-09-17T23:23:48.592Z,14.40
2018-09-17T23:26:17.127Z,14.40
2018-09-17T23:28:45.850Z,14.40
2018-09-17T23:31:14.401Z,14.40
2018-09-17T23:33:42.962Z,14.40
2018-09-17T23:36:11.504Z,14.40
2018-09-17T23:38:40.097Z,14.30
2018-09-17T23:41:08.630Z,14.40
2018-09-17T23:43:37.375Z,14.40
2018-09-17T23:46:06.631Z,14.30
2018-09-17T23:48:36.143Z,14.30
2018-09-17T23:51:05.117Z,14.40
2018-09-17T23:53:33.713Z,14.30
2018-09-17T23:56:02.286Z,14.40
2018-09-17T23:58:30.966Z,14.30
